• Join FlightAware (Why Join?)
  • Login
  • US Flag 
03:05AM EDT


 

Airport Tracker/Info


-or-


 

Live Flight TrackerFlight Track Log ✈ EGF3676 ✈ 21-Apr-2013 ✈ KDEN - KLAX

Flight Track Log - Related Links

Times and Time Zones

All times are in EDT time to prevent confusion due to time zone crossing. See the EGF3676 flight status page for this flight to view local times or setup timezone preferences in your user account.

Time Position Orientation Groundspeed Altitude Reporting Facility
EDT Latitude Longitude Course Direction KTS MPH feet Rate Location/Type
05:49PM 39.8333 -104.7833 248° West 212 244 7,300  Level Denver TRACON
05:50PM 39.8000 -104.8667 243° Southwest 264 304 10,100 2,220 Climbing Denver TRACON
05:51PM 39.7319 -105.0376 247° West  Level FlightAware Approximate
05:51PM 39.7772 -104.9567 252° West 283 326 11,800  Level Denver Center
05:52PM 39.6910 -105.1604 247° West  Level FlightAware Approximate
05:52PM 39.7403 -105.0664 246° West 327 376 13,400  Level Denver Center
05:53PM 39.6538 -105.2849 252° West  Level FlightAware Approximate
05:53PM 39.6997 -105.1872 246° West 367 422 14,600  Level Denver Center
05:54PM 39.6164 -105.4095 248° West  Level FlightAware Approximate
05:54PM 39.6533 -105.3231 246° West 382 440 16,500  Level Denver Center
05:55PM 39.6092 -105.4508 246° West 391 450 18,300 1,800 Climbing Denver Center
05:56PM 39.5628 -105.5847 246° West 372 428 20,300 1,200 Climbing Denver Center
05:57PM 39.5217 -105.7203 249° West 402 463 20,900 1,020 Climbing Denver Center
05:58PM 39.4847 -105.8597 251° West 407 468 22,500 1,500 Climbing Denver Center
05:59PM 39.4478 -105.9969 251° West 401 461 24,100 1,380 Climbing Denver Center
06:00PM 39.4083 -106.1350 250° West 405 466 25,400 1,260 Climbing Denver Center
06:01PM 39.3658 -106.2878 250° West 399 459 26,800 1,080 Climbing Denver Center
06:02PM 39.3297 -106.4167 250° West 399 459 27,700 960 Climbing Denver Center
06:03PM 39.2856 -106.5683 249° West 403 464 28,900 900 Climbing Denver Center
06:04PM 39.2469 -106.6975 249° West 402 463 29,600 780 Climbing Denver Center
06:05PM 39.1692 -106.8347 234° Southwest 425 489 30,600 960 Climbing Denver Center
06:06PM 39.0978 -106.9483 231° Southwest 427 491 31,600 960 Climbing Denver Center
06:07PM 39.0156 -107.0775 231° Southwest 419 482 32,700 900 Climbing Denver Center
06:08PM 38.9475 -107.1867 231° Southwest 411 473 33,500 600 Climbing Denver Center
06:09PM 38.8681 -107.3114 231° Southwest 404 465 34,000 240 Climbing Denver Center
06:10PM 38.7986 -107.4208 231° Southwest 409 471 34,000  Level Denver Center
06:11PM 38.7283 -107.5294 230° Southwest 412 474 34,000  Level Denver Center
06:12PM 38.6453 -107.6597 231° Southwest 418 481 34,000  Level Denver Center
06:13PM 38.5736 -107.7703 230° Southwest 420 483 34,000  Level Denver Center
06:15PM 38.4914 -107.8989 231° Southwest 418 481 34,000  Level Denver Center
06:16PM 38.4197 -108.0072 230° Southwest 416 479 34,000  Level Denver Center
06:17PM 38.3350 -108.1381 230° Southwest 424 488 34,000  Level Denver Center
06:18PM 38.2619 -108.2483 230° Southwest 425 489 34,000  Level Denver Center
06:19PM 38.1767 -108.3806 231° Southwest 428 493 34,000  Level Denver Center
06:20PM 38.1033 -108.4892 229° Southwest 425 489 34,000  Level Denver Center
06:21PM 38.0256 -108.6056 230° Southwest 424 488 34,000  Level Denver Center
06:22PM 37.9386 -108.7361 230° Southwest 430 495 34,000  Level Denver Center
06:23PM 37.8644 -108.8481 230° Southwest 434 499 34,000  Level Denver Center
06:24PM 37.7942 -108.9622 232° Southwest 429 494 34,000  Level Denver Center
06:25PM 37.7303 -109.1092 241° Southwest 428 493 34,000  Level Denver Center
06:26PM 37.6750 -109.2306 240° Southwest 419 482 34,000  Level Denver Center
06:27PM 37.6108 -109.3750 241° Southwest 422 486 34,000  Level Denver Center
06:28PM 37.5556 -109.4989 241° Southwest 423 487 34,000  Level Denver Center
06:29PM 37.4914 -109.6439 241° Southwest 425 489 34,000  Level Denver Center
06:30PM 37.4347 -109.7678 240° Southwest 428 493 34,000  Level Denver Center
06:31PM 37.3689 -109.9119 240° Southwest 428 493 34,000  Level Denver Center
06:32PM 37.3128 -110.0369 241° Southwest 430 495 34,000  Level Denver Center
06:33PM 37.2483 -110.1789 240° Southwest 430 495 34,000  Level Denver Center
06:34PM 37.1936 -110.2958 240° Southwest 433 498 34,000  Level Denver Center
06:35PM 37.1206 -110.4539 240° Southwest 437 503 34,000  Level Denver Center
06:36PM 37.0589 -110.5847 239° Southwest 436 502 34,000  Level Denver Center
06:37PM 36.9978 -110.7167 240° Southwest 438 504 34,000  Level Denver Center
06:38PM 36.9381 -110.8475 240° Southwest 433 498 34,000  Level Denver Center
06:39PM 36.8883 -110.9531 240° Southwest 437 503 34,000  Level Denver Center
06:40PM 36.8153 -111.1094 240° Southwest 434 499 34,000  Level Denver Center
06:41PM 36.7550 -111.2397 240° Southwest 433 498 34,000  Level Denver Center
06:42PM 36.6775 -111.3997 239° Southwest 442 509 34,000  Level Denver Center
06:43PM 36.6147 -111.5325 240° Southwest 445 512 34,000  Level Denver Center
06:44PM 36.5506 -111.6647 239° Southwest 445 512 34,000  Level Denver Center
06:45PM 36.4900 -111.7981 241° Southwest 444 511 34,000  Level Denver Center
06:47PM 36.4347 -111.9333 243° Southwest 440 506 34,000  Level Denver Center
06:47PM 36.4111 -111.9883 242° Southwest 442 509 34,000  Level Los Angeles Center
06:48PM 36.3539 -112.1219 242° Southwest 439 505 34,000  Level Los Angeles Center
06:49PM 36.2978 -112.2575 243° Southwest 440 506 34,000  Level Los Angeles Center
06:50PM 36.2406 -112.3933 242° Southwest 444 511 34,000  Level Los Angeles Center
06:51PM 36.1831 -112.5294 242° Southwest 444 511 34,000  Level Los Angeles Center
06:52PM 36.1250 -112.6661 242° Southwest 448 516 34,000  Level Los Angeles Center
06:53PM 36.0558 -112.8297 242° Southwest 448 516 34,000  Level Los Angeles Center
06:54PM 35.9981 -112.9656 242° Southwest 446 513 34,000  Level Los Angeles Center
06:55PM 35.9467 -113.0844 242° Southwest 447 514 34,000  Level Los Angeles Center
06:56PM 35.8783 -113.2450 242° Southwest 445 512 34,000  Level Los Angeles Center
06:57PM 35.8206 -113.3781 242° Southwest 445 512 34,000  Level Los Angeles Center
06:58PM 35.7628 -113.5097 242° Southwest 442 509 34,000  Level Los Angeles Center
06:59PM 35.6947 -113.6647 242° Southwest 443 510 34,000  Level Los Angeles Center
07:00PM 35.6469 -113.7769 242° Southwest 447 514 34,000  Level Los Angeles Center
07:01PM 35.5758 -113.9375 241° Southwest 449 517 34,000  Level Los Angeles Center
07:02PM 35.5167 -114.0708 241° Southwest 449 517 34,000  Level Los Angeles Center
07:03PM 35.4572 -114.2050 241° Southwest 451 519 34,000  Level Los Angeles Center
07:04PM 35.3953 -114.3392 241° Southwest 446 513 34,000  Level Los Angeles Center
07:05PM 35.3350 -114.4789 242° Southwest 459 528 34,000  Level Los Angeles Center
07:06PM 35.2608 -114.6411 241° Southwest 455 524 34,000  Level Los Angeles Center
07:07PM 35.2003 -114.7761 241° Southwest 453 521 34,000  Level Los Angeles Center
07:09PM 35.1392 -114.9103 241° Southwest 451 519 34,000  Level Los Angeles Center
07:10PM 35.0783 -115.0453 241° Southwest 452 520 34,000  Level Los Angeles Center
07:11PM 35.0161 -115.1803 241° Southwest 454 522 34,000 -480 Level Los Angeles Center
07:12PM 34.9556 -115.3117 241° Southwest 453 521 33,100 -1,080 Descending Los Angeles Center
07:13PM 34.8797 -115.4725 240° Southwest 450 518 31,800 -1,200 Descending Los Angeles Center
07:14PM 34.8175 -115.6117 241° Southwest 463 533 30,700 -900 Descending Los Angeles Center
07:15PM 34.7533 -115.7511 241° Southwest 473 544 30,000 -360 Descending Los Angeles Center
07:16PM 34.6894 -115.8867 240° Southwest 465 535 30,000  Level Los Angeles Center
07:17PM 34.6264 -116.0206 240° Southwest 461 531 30,000  Level Los Angeles Center
07:18PM 34.5625 -116.1558 240° Southwest 460 529 30,000  Level Los Angeles Center
07:19PM 34.4992 -116.2914 240° Southwest 461 531 30,000 -780 Level Los Angeles Center
07:20PM 34.4211 -116.4533 240° Southwest 461 531 28,400 -1,500 Descending Los Angeles Center
07:21PM 34.3597 -116.5831 240° Southwest 448 516 27,000 -720 Descending Los Angeles Center
07:22PM 34.2961 -116.7147 240° Southwest 451 519 27,000 -1,380 Level Los Angeles Center
07:23PM 34.2322 -116.8472 240° Southwest 454 522 24,200 -2,760 Descending Los Angeles Center
07:24PM 34.1694 -116.9769 240° Southwest 448 516 21,400 -2,340 Descending Los Angeles Center
07:25PM 34.1006 -117.1261 241° Southwest 423 487 19,400 -960 Descending Los Angeles Center
07:26PM 34.0569 -117.2258 242° Southwest 364 419 19,400 -1,200 Level Los Angeles Center
07:27PM 34.0431 -117.3250 260° West 312 359 17,000 -2,400 Descending Los Angeles Center
07:28PM 34.0306 -117.4236 261° West 299 344 14,500 -2,040 Descending Los Angeles Center
07:29PM 34.0325 -117.5214 271° West 295 339 12,800 -1,680 Descending Los Angeles Center
07:30PM 34.0278 -117.6386 267° West 291 335 11,100 -1,500 Descending Los Angeles Center
07:31PM 34.0189 -117.7358 264° West 292 336 9,800 -1,380 Descending Los Angeles Center
07:32PM 34.0000 -117.8333 257° West 289 333 8,400 -1,320 Descending Southern California TRACON
07:33PM 34.0000 -117.9333 270° West 286 329 7,200 -1,260 Descending Southern California TRACON
07:34PM 33.9833 -118.0167 256° West 280 322 5,900 -1,320 Descending Southern California TRACON
07:35PM 33.9833 -118.1167 270° West 257 296 4,600 -1,320 Descending Southern California TRACON
07:36PM 33.9667 -118.1833 253° West 218 251 3,300 -960 Descending Southern California TRACON
07:37PM 33.9667 -118.2500 270° West 189 217 2,700 -720 Descending Southern California TRACON
07:38PM 33.9667 -118.3167 270° West 175 201 1,900 -840 Descending Southern California TRACON